Annapolitan II — WYZ8643 — position and weather

sailwx.info

Track history (hours):
 
Tides and Currents Weather Stations Pressure Air Temp Water Temp Dewpoint Dewpoint Depression Visibility Wind Speed Wind Dir Waves Ship Positions

Annapolitan II

Owner: CHESAPEAKE MARINE TOURS INC, ANNAPOLIS, MD. More information available from US FCC via Universal Licensing System and Coast Guard Vessel Documentation Center.

Last reported at 2018-Jul-22 16:30 UTC. Time now 2018-Jul-22 16:35 UTC.
Position N 39°16' W 076°35'.

Type: Passenger vessel. MMSI: 367335820.

Date/timePositionNaut miles runAvg speedWind from/ knotsBaromVisibWave heightAir tempDewpointWater temp
2018-Jul-22 16:30N 39°16' W 076°35'1 2.8
2018-Jul-22 16:01N 39°17' W 076°37'0 0.0
2018-Jul-22 15:01N 39°17' W 076°37'0 0.0
2018-Jul-22 01:11N 39°17' W 076°37'0 0.0
2018-Jul-22 01:00N 39°17' W 076°37'2 4.6
2018-Jul-22 00:30N 39°16' W 076°34'2 4.6
2018-Jul-22 00:00N 39°17' W 076°37'0 0.0
2018-Jul-21 23:30N 39°17' W 076°37'0 0.0
2018-Jul-21 23:00N 39°17' W 076°37'0 0.0
2018-Jul-21 22:30N 39°17' W 076°37'0 0.0
2018-Jul-21 22:00N 39°17' W 076°37'0 0.0
2018-Jul-21 21:30N 39°17' W 076°37'0 0.0
2018-Jul-21 21:00N 39°17' W 076°37'1 3.0
2018-Jul-21 20:30N 39°16' W 076°35'1 3.0
2018-Jul-21 20:00N 39°17' W 076°37'1 2.4
2018-Jul-21 19:30N 39°17' W 076°35'1 2.5
2018-Jul-21 19:00N 39°17' W 076°37'2 3.3
2018-Jul-21 18:30N 39°16' W 076°35'2 3.3
2018-Jul-21 18:00N 39°17' W 076°37'1 2.9
2018-Jul-21 17:30N 39°16' W 076°35'1 3.0
2018-Jul-21 17:00N 39°17' W 076°37'1 2.3
2018-Jul-21 16:30N 39°17' W 076°35'1 2.3
2018-Jul-21 16:00N 39°17' W 076°37'0 0.0
2018-Jul-21 15:29N 39°17' W 076°37'0 0.0
2018-Jul-21 15:00N 39°17' W 076°37'0 0.0
2018-Jul-20 23:55N 39°17' W 076°37'1 1.6
2018-Jul-20 23:30N 39°17' W 076°36'4 7.4
2018-Jul-20 23:00N 39°14' W 076°32'2 3.8
2018-Jul-20 22:30N 39°15' W 076°34'2 4.9
2018-Jul-20 22:00N 39°17' W 076°37'1 2.3
2018-Jul-20 21:30N 39°17' W 076°35'1 2.3
2018-Jul-20 21:00N 39°17' W 076°37'1 2.6
2018-Jul-20 20:30N 39°17' W 076°35'1 2.6
2018-Jul-20 20:00N 39°17' W 076°37'1 2.8
2018-Jul-20 19:30N 39°16' W 076°35'1 2.8
2018-Jul-20 19:00N 39°17' W 076°37'2 3.5
2018-Jul-20 18:30N 39°16' W 076°35'2 3.3
2018-Jul-20 17:59N 39°17' W 076°37'1 2.4
2018-Jul-20 17:29N 39°17' W 076°35'1 2.4
2018-Jul-20 16:59N 39°17' W 076°37'0 0.0
2018-Jul-20 16:30N 39°17' W 076°37'0 0.0
2018-Jul-20 16:00N 39°17' W 076°37'0 0.0
2018-Jul-19 21:22N 39°17' W 076°37'0 0.0
2018-Jul-19 21:00N 39°17' W 076°37'1 2.4
2018-Jul-19 20:30N 39°17' W 076°35'1 2.4
2018-Jul-19 20:00N 39°17' W 076°37'1 2.1
2018-Jul-19 19:30N 39°17' W 076°35'1 2.2
2018-Jul-19 19:00N 39°17' W 076°37'1 2.3
2018-Jul-19 18:30N 39°17' W 076°35'1 2.3
2018-Jul-19 18:00N 39°17' W 076°37'1 2.2
2018-Jul-19 17:30N 39°17' W 076°35'1 2.2
2018-Jul-19 17:00N 39°17' W 076°37'0 0.0
2018-Jul-19 16:30N 39°17' W 076°37'1 1.4
2018-Jul-19 16:00N 39°17' W 076°36'1 1.1
2018-Jul-19 15:30N 39°17' W 076°36'0 0.4
2018-Jul-19 15:00N 39°17' W 076°37'0 0.0
2018-Jul-18 20:51N 39°17' W 076°37'2 4.6
2018-Jul-18 20:31N 39°16' W 076°35'2 3.1
2018-Jul-18 20:00N 39°17' W 076°37'1 2.3
2018-Jul-18 19:30N 39°17' W 076°35'1 2.3
2018-Jul-18 19:00N 39°17' W 076°37'1 2.1
2018-Jul-18 18:30N 39°17' W 076°35'1 2.0
2018-Jul-18 18:00N 39°17' W 076°37'1 3.0
2018-Jul-18 17:30N 39°16' W 076°35'1 2.8
2018-Jul-18 16:59N 39°17' W 076°37'1 2.9
2018-Jul-18 16:30N 39°16' W 076°35'1 2.8
2018-Jul-18 16:00N 39°17' W 076°37'0 0.0
2018-Jul-17 20:06N 39°17' W 076°37'0 0.1
2018-Jul-17 20:00N 39°17' W 076°37'1 2.4
2018-Jul-17 19:31N 39°17' W 076°35'1 2.3
2018-Jul-17 19:01N 39°17' W 076°37'1 2.3
2018-Jul-17 18:30N 39°17' W 076°35'1 2.4
2018-Jul-17 18:01N 39°17' W 076°37'1 2.2
2018-Jul-17 17:30N 39°17' W 076°35'1 2.2
2018-Jul-17 17:00N 39°17' W 076°37'0 0.0
2018-Jul-17 16:30N 39°17' W 076°37'0 0.0
2018-Jul-17 16:01N 39°17' W 076°37'0 0.0
2018-Jul-17 00:25N 39°17' W 076°37'1 0.9
2018-Jul-16 23:30N 39°17' W 076°36'2 3.2
2018-Jul-16 23:00N 39°15' W 076°34'1 1.1
2018-Jul-16 22:30N 39°15' W 076°34'2 4.3
2018-Jul-16 22:00N 39°17' W 076°36'1 1.2
2018-Jul-16 21:30N 39°17' W 076°36'0 0.6
2018-Jul-16 21:00N 39°17' W 076°37'1 2.3
2018-Jul-16 20:30N 39°17' W 076°35'1 2.3
2018-Jul-16 20:00N 39°17' W 076°37'1 1.9
2018-Jul-16 19:30N 39°17' W 076°36'1 1.9
2018-Jul-16 19:00N 39°17' W 076°37'1 2.2
2018-Jul-16 18:30N 39°17' W 076°35'1 2.2
2018-Jul-16 18:00N 39°17' W 076°37'1 2.2
2018-Jul-16 17:30N 39°17' W 076°35'1 2.2
2018-Jul-16 17:00N 39°17' W 076°37'0 0.0
2018-Jul-16 16:29N 39°17' W 076°37'0 0.0
2018-Jul-16 15:59N 39°17' W 076°37'0 0.0
2018-Jul-15 23:56N 39°17' W 076°37'1 3.3
2018-Jul-15 23:30N 39°16' W 076°35'1 2.9
2018-Jul-15 23:00N 39°17' W 076°37'1 2.7
2018-Jul-15 22:30N 39°17' W 076°35'1 2.7
2018-Jul-15 22:00N 39°17' W 076°37'1 2.5
2018-Jul-15 21:30N 39°17' W 076°35'1 2.5
2018-Jul-15 21:00N 39°17' W 076°37'2 3.1
2018-Jul-15 20:30N 39°16' W 076°35'2 3.2
2018-Jul-15 20:00N 39°17' W 076°37'1 2.8
2018-Jul-15 19:30N 39°16' W 076°35'1 2.8
2018-Jul-15 19:00N 39°17' W 076°37'1 2.7
2018-Jul-15 18:30N 39°17' W 076°35'1 2.7
2018-Jul-15 18:00N 39°17' W 076°37'1 2.7
2018-Jul-15 17:30N 39°17' W 076°35'1 2.6
2018-Jul-15 17:00N 39°17' W 076°37'1 2.8
2018-Jul-15 16:30N 39°16' W 076°35'1 2.7
2018-Jul-15 15:59N 39°17' W 076°37'0 0.0
2018-Jul-15 01:04N 39°17' W 076°37'0 0.8
2018-Jul-15 01:00N 39°17' W 076°37'2 3.6
2018-Jul-15 00:30N 39°16' W 076°35'2 3.6
2018-Jul-15 00:00N 39°17' W 076°37'1 3.0
2018-Jul-14 23:30N 39°16' W 076°35'1 3.0
2018-Jul-14 23:00N 39°17' W 076°37'1 2.8
2018-Jul-14 22:30N 39°16' W 076°35'1 2.7
2018-Jul-14 22:00N 39°17' W 076°37'1 3.0
2018-Jul-14 21:30N 39°16' W 076°35'1 2.9
2018-Jul-14 21:00N 39°17' W 076°37'2 3.2
2018-Jul-14 20:30N 39°16' W 076°35'2 3.2
2018-Jul-14 20:00N 39°17' W 076°37'2 3.0
2018-Jul-14 19:30N 39°16' W 076°35'2 3.0
2018-Jul-14 19:00N 39°17' W 076°37'2 3.2
2018-Jul-14 18:31N 39°16' W 076°35'2 3.1
2018-Jul-14 18:00N 39°17' W 076°37'2 3.3
2018-Jul-14 17:30N 39°16' W 076°35'2 3.2
2018-Jul-14 17:00N 39°17' W 076°37'2 3.2
2018-Jul-14 16:30N 39°16' W 076°35'2 3.1
2018-Jul-14 16:00N 39°17' W 076°37'0 0.0
2018-Jul-13 23:48N 39°17' W 076°37'0 0.0
2018-Jul-13 23:30N 39°17' W 076°37'2 4.3
2018-Jul-13 23:00N 39°16' W 076°34'1 1.1
2018-Jul-13 22:30N 39°15' W 076°34'3 5.2
2018-Jul-13 22:00N 39°17' W 076°37'1 2.7
2018-Jul-13 21:30N 39°17' W 076°35'1 2.6
2018-Jul-13 20:59N 39°17' W 076°37'1 2.6
2018-Jul-13 20:30N 39°17' W 076°35'1 2.5
2018-Jul-13 20:00N 39°17' W 076°37'1 2.3
2018-Jul-13 19:30N 39°17' W 076°35'1 2.3
2018-Jul-13 19:00N 39°17' W 076°37'1 2.6
2018-Jul-13 18:30N 39°17' W 076°35'1 2.6
2018-Jul-13 18:00N 39°17' W 076°37'1 2.8
2018-Jul-13 17:30N 39°16' W 076°35'1 2.8
2018-Jul-13 17:00N 39°17' W 076°37'0 0.0
2018-Jul-13 16:30N 39°17' W 076°37'0 0.0
2018-Jul-13 16:00N 39°17' W 076°37'0 0.0
2018-Jul-12 20:58N 39°17' W 076°37'1 2.9
2018-Jul-12 20:30N 39°17' W 076°35'1 2.6
2018-Jul-12 20:00N 39°17' W 076°37'1 2.4
2018-Jul-12 19:30N 39°17' W 076°35'1 2.3
2018-Jul-12 19:00N 39°17' W 076°37'1 2.8
2018-Jul-12 18:30N 39°17' W 076°35'1 2.8
2018-Jul-12 18:00N 39°17' W 076°37'1 2.6
2018-Jul-12 17:30N 39°17' W 076°35'1 2.6
2018-Jul-12 17:00N 39°17' W 076°37'  
Track history (hours):
 
Tides and Currents Weather Stations Pressure Air Temp Water Temp Dewpoint Dewpoint Depression Visibility Wind Speed Wind Dir Waves Ship Positions

Annapolitan II

Owner: CHESAPEAKE MARINE TOURS INC, ANNAPOLIS, MD. More information available from US FCC via Universal Licensing System and Coast Guard Vessel Documentation Center.

Last reported at 2018-Jul-22 16:30 UTC. Time now 2018-Jul-22 16:35 UTC.
Position N 39°16' W 076°35'.

Type: Passenger vessel. MMSI: 367335820.

Date/timePositionNaut miles runAvg speedWind from/ knotsBaromVisibWave heightAir tempDewpointWater temp
2018-Jul-22 16:30N 39°16' W 076°35'1 2.8
2018-Jul-22 16:01N 39°17' W 076°37'0 0.0
2018-Jul-22 15:01N 39°17' W 076°37'0 0.0
2018-Jul-22 01:11N 39°17' W 076°37'0 0.0
2018-Jul-22 01:00N 39°17' W 076°37'2 4.6
2018-Jul-22 00:30N 39°16' W 076°34'2 4.6
2018-Jul-22 00:00N 39°17' W 076°37'0 0.0
2018-Jul-21 23:30N 39°17' W 076°37'0 0.0
2018-Jul-21 23:00N 39°17' W 076°37'0 0.0
2018-Jul-21 22:30N 39°17' W 076°37'0 0.0
2018-Jul-21 22:00N 39°17' W 076°37'0 0.0
2018-Jul-21 21:30N 39°17' W 076°37'0 0.0
2018-Jul-21 21:00N 39°17' W 076°37'1 3.0
2018-Jul-21 20:30N 39°16' W 076°35'1 3.0
2018-Jul-21 20:00N 39°17' W 076°37'1 2.4
2018-Jul-21 19:30N 39°17' W 076°35'1 2.5
2018-Jul-21 19:00N 39°17' W 076°37'2 3.3
2018-Jul-21 18:30N 39°16' W 076°35'2 3.3
2018-Jul-21 18:00N 39°17' W 076°37'1 2.9
2018-Jul-21 17:30N 39°16' W 076°35'1 3.0
2018-Jul-21 17:00N 39°17' W 076°37'1 2.3
2018-Jul-21 16:30N 39°17' W 076°35'1 2.3
2018-Jul-21 16:00N 39°17' W 076°37'0 0.0
2018-Jul-21 15:29N 39°17' W 076°37'0 0.0
2018-Jul-21 15:00N 39°17' W 076°37'0 0.0
2018-Jul-20 23:55N 39°17' W 076°37'1 1.6
2018-Jul-20 23:30N 39°17' W 076°36'4 7.4
2018-Jul-20 23:00N 39°14' W 076°32'2 3.8
2018-Jul-20 22:30N 39°15' W 076°34'2 4.9
2018-Jul-20 22:00N 39°17' W 076°37'1 2.3
2018-Jul-20 21:30N 39°17' W 076°35'1 2.3
2018-Jul-20 21:00N 39°17' W 076°37'1 2.6
2018-Jul-20 20:30N 39°17' W 076°35'1 2.6
2018-Jul-20 20:00N 39°17' W 076°37'1 2.8
2018-Jul-20 19:30N 39°16' W 076°35'1 2.8
2018-Jul-20 19:00N 39°17' W 076°37'2 3.5
2018-Jul-20 18:30N 39°16' W 076°35'2 3.3
2018-Jul-20 17:59N 39°17' W 076°37'1 2.4
2018-Jul-20 17:29N 39°17' W 076°35'1 2.4
2018-Jul-20 16:59N 39°17' W 076°37'0 0.0
2018-Jul-20 16:30N 39°17' W 076°37'0 0.0
2018-Jul-20 16:00N 39°17' W 076°37'0 0.0
2018-Jul-19 21:22N 39°17' W 076°37'0 0.0
2018-Jul-19 21:00N 39°17' W 076°37'1 2.4
2018-Jul-19 20:30N 39°17' W 076°35'1 2.4
2018-Jul-19 20:00N 39°17' W 076°37'1 2.1
2018-Jul-19 19:30N 39°17' W 076°35'1 2.2
2018-Jul-19 19:00N 39°17' W 076°37'1 2.3
2018-Jul-19 18:30N 39°17' W 076°35'1 2.3
2018-Jul-19 18:00N 39°17' W 076°37'1 2.2
2018-Jul-19 17:30N 39°17' W 076°35'1 2.2
2018-Jul-19 17:00N 39°17' W 076°37'0 0.0
2018-Jul-19 16:30N 39°17' W 076°37'1 1.4
2018-Jul-19 16:00N 39°17' W 076°36'1 1.1
2018-Jul-19 15:30N 39°17' W 076°36'0 0.4
2018-Jul-19 15:00N 39°17' W 076°37'0 0.0
2018-Jul-18 20:51N 39°17' W 076°37'2 4.6
2018-Jul-18 20:31N 39°16' W 076°35'2 3.1
2018-Jul-18 20:00N 39°17' W 076°37'1 2.3
2018-Jul-18 19:30N 39°17' W 076°35'1 2.3
2018-Jul-18 19:00N 39°17' W 076°37'1 2.1
2018-Jul-18 18:30N 39°17' W 076°35'1 2.0
2018-Jul-18 18:00N 39°17' W 076°37'1 3.0
2018-Jul-18 17:30N 39°16' W 076°35'1 2.8
2018-Jul-18 16:59N 39°17' W 076°37'1 2.9
2018-Jul-18 16:30N 39°16' W 076°35'1 2.8
2018-Jul-18 16:00N 39°17' W 076°37'0 0.0
2018-Jul-17 20:06N 39°17' W 076°37'0 0.1
2018-Jul-17 20:00N 39°17' W 076°37'1 2.4
2018-Jul-17 19:31N 39°17' W 076°35'1 2.3
2018-Jul-17 19:01N 39°17' W 076°37'1 2.3
2018-Jul-17 18:30N 39°17' W 076°35'1 2.4
2018-Jul-17 18:01N 39°17' W 076°37'1 2.2
2018-Jul-17 17:30N 39°17' W 076°35'1 2.2
2018-Jul-17 17:00N 39°17' W 076°37'0 0.0
2018-Jul-17 16:30N 39°17' W 076°37'0 0.0
2018-Jul-17 16:01N 39°17' W 076°37'0 0.0
2018-Jul-17 00:25N 39°17' W 076°37'1 0.9
2018-Jul-16 23:30N 39°17' W 076°36'2 3.2
2018-Jul-16 23:00N 39°15' W 076°34'1 1.1
2018-Jul-16 22:30N 39°15' W 076°34'2 4.3
2018-Jul-16 22:00N 39°17' W 076°36'1 1.2
2018-Jul-16 21:30N 39°17' W 076°36'0 0.6
2018-Jul-16 21:00N 39°17' W 076°37'1 2.3
2018-Jul-16 20:30N 39°17' W 076°35'1 2.3
2018-Jul-16 20:00N 39°17' W 076°37'1 1.9
2018-Jul-16 19:30N 39°17' W 076°36'1 1.9
2018-Jul-16 19:00N 39°17' W 076°37'1 2.2
2018-Jul-16 18:30N 39°17' W 076°35'1 2.2
2018-Jul-16 18:00N 39°17' W 076°37'1 2.2
2018-Jul-16 17:30N 39°17' W 076°35'1 2.2
2018-Jul-16 17:00N 39°17' W 076°37'0 0.0
2018-Jul-16 16:29N 39°17' W 076°37'0 0.0
2018-Jul-16 15:59N 39°17' W 076°37'0 0.0
2018-Jul-15 23:56N 39°17' W 076°37'1 3.3
2018-Jul-15 23:30N 39°16' W 076°35'1 2.9
2018-Jul-15 23:00N 39°17' W 076°37'1 2.7
2018-Jul-15 22:30N 39°17' W 076°35'1 2.7
2018-Jul-15 22:00N 39°17' W 076°37'1 2.5
2018-Jul-15 21:30N 39°17' W 076°35'1 2.5
2018-Jul-15 21:00N 39°17' W 076°37'2 3.1
2018-Jul-15 20:30N 39°16' W 076°35'2 3.2
2018-Jul-15 20:00N 39°17' W 076°37'1 2.8
2018-Jul-15 19:30N 39°16' W 076°35'1 2.8
2018-Jul-15 19:00N 39°17' W 076°37'1 2.7
2018-Jul-15 18:30N 39°17' W 076°35'1 2.7
2018-Jul-15 18:00N 39°17' W 076°37'1 2.7
2018-Jul-15 17:30N 39°17' W 076°35'1 2.6
2018-Jul-15 17:00N 39°17' W 076°37'1 2.8
2018-Jul-15 16:30N 39°16' W 076°35'1 2.7
2018-Jul-15 15:59N 39°17' W 076°37'0 0.0
2018-Jul-15 01:04N 39°17' W 076°37'0 0.8
2018-Jul-15 01:00N 39°17' W 076°37'2 3.6
2018-Jul-15 00:30N 39°16' W 076°35'2 3.6
2018-Jul-15 00:00N 39°17' W 076°37'1 3.0
2018-Jul-14 23:30N 39°16' W 076°35'1 3.0
2018-Jul-14 23:00N 39°17' W 076°37'1 2.8
2018-Jul-14 22:30N 39°16' W 076°35'1 2.7
2018-Jul-14 22:00N 39°17' W 076°37'1 3.0
2018-Jul-14 21:30N 39°16' W 076°35'1 2.9
2018-Jul-14 21:00N 39°17' W 076°37'2 3.2
2018-Jul-14 20:30N 39°16' W 076°35'2 3.2
2018-Jul-14 20:00N 39°17' W 076°37'2 3.0
2018-Jul-14 19:30N 39°16' W 076°35'2 3.0
2018-Jul-14 19:00N 39°17' W 076°37'2 3.2
2018-Jul-14 18:31N 39°16' W 076°35'2 3.1
2018-Jul-14 18:00N 39°17' W 076°37'2 3.3
2018-Jul-14 17:30N 39°16' W 076°35'2 3.2
2018-Jul-14 17:00N 39°17' W 076°37'2 3.2
2018-Jul-14 16:30N 39°16' W 076°35'2 3.1
2018-Jul-14 16:00N 39°17' W 076°37'0 0.0
2018-Jul-13 23:48N 39°17' W 076°37'0 0.0
2018-Jul-13 23:30N 39°17' W 076°37'2 4.3
2018-Jul-13 23:00N 39°16' W 076°34'1 1.1
2018-Jul-13 22:30N 39°15' W 076°34'3 5.2
2018-Jul-13 22:00N 39°17' W 076°37'1 2.7
2018-Jul-13 21:30N 39°17' W 076°35'1 2.6
2018-Jul-13 20:59N 39°17' W 076°37'1 2.6
2018-Jul-13 20:30N 39°17' W 076°35'1 2.5
2018-Jul-13 20:00N 39°17' W 076°37'1 2.3
2018-Jul-13 19:30N 39°17' W 076°35'1 2.3
2018-Jul-13 19:00N 39°17' W 076°37'1 2.6
2018-Jul-13 18:30N 39°17' W 076°35'1 2.6
2018-Jul-13 18:00N 39°17' W 076°37'1 2.8
2018-Jul-13 17:30N 39°16' W 076°35'1 2.8
2018-Jul-13 17:00N 39°17' W 076°37'0 0.0
2018-Jul-13 16:30N 39°17' W 076°37'0 0.0
2018-Jul-13 16:00N 39°17' W 076°37'0 0.0
2018-Jul-12 20:58N 39°17' W 076°37'1 2.9
2018-Jul-12 20:30N 39°17' W 076°35'1 2.6
2018-Jul-12 20:00N 39°17' W 076°37'1 2.4
2018-Jul-12 19:30N 39°17' W 076°35'1 2.3
2018-Jul-12 19:00N 39°17' W 076°37'1 2.8
2018-Jul-12 18:30N 39°17' W 076°35'1 2.8
2018-Jul-12 18:00N 39°17' W 076°37'1 2.6
2018-Jul-12 17:30N 39°17' W 076°35'1 2.6
2018-Jul-12 17:00N 39°17' W 076°37'  

Dump ship's entire track history